Pagrindinis puslapis
METAR-TAF:

METAR-TAF

Oro uostai :

Faßberg, Vokietija

platuma: 52-55N, ilguma: 010-11E, Aukštis: 75 m

Dabartinis oras

Ataskaita buvo paskelbta 29 minutes, ne 23:20 UTC
Vėjas 6 kt iš Šiaurės/Šiaurės Vakarų
Temperatūra 5°C
Drėgmė 75%
Slėgis 1021 hPa
Matomumas: 7000 m

METAR: ETHS 282320Z AUTO 33006KT 7000 // ////// 05/01 Q1021 ///

Laikas: 00:49 (23:49 UTC)


TAF: trūkstamas

Orai ataskaitas ir orų prognozės (METAR, TAF).

turimą stotys yra geltonos ir raudonos taškus žemėlapyje.

Perkelti pele per norėdami pamatyti stoties vardą.

Tada spustelėkite, norėdami matyti oro stebėjimo ir prognozės.

Norėdami pakeisti žemėlapį: spustelėkite ant žalios mygtukų su juodo kryžiaus žemyn,; žalią mygtuką su brūkšneliu, jei norite nutolinti; arba žalių rodyklių gretimoms žemėlapius.


METAR-TAF: